Time;durP1;ratioP1;P1;durP2;ratioP2;P2;SDS_P1;SDS_P2;PMS_P1;PMS_P2;Temp;Humidity;BMP_temperature;BMP_pressure;BME280_temperature;BME280_humidity;BME280_pressure;Samples;Min_cycle;Max_cycle;Signal;HPM_P1;HPM_P2
2023/04/09 00:01:56;;;;;;;91.40;66.20;;;8.70;99.90;;;;;;4879387;29;20214;-84
2023/04/09 00:04:22;;;;;;;75.87;52.27;;;8.60;99.90;;;;;;4881195;29;20413;-84
2023/04/09 00:06:48;;;;;;;55.20;44.20;;;8.60;99.90;;;;;;4880460;29;20176;-84
2023/04/09 00:09:15;;;;;;;51.10;40.50;;;8.60;99.90;;;;;;4880130;29;20444;-84
2023/04/09 00:11:40;;;;;;;54.47;35.60;;;8.60;99.90;;;;;;4879345;29;20740;-84
2023/04/09 00:14:06;;;;;;;40.77;31.60;;;8.70;99.90;;;;;;4880502;29;20430;-84
2023/04/09 00:16:32;;;;;;;41.10;30.40;;;8.80;99.90;;;;;;4880763;29;20416;-84
2023/04/09 00:18:58;;;;;;;39.73;27.87;;;8.80;99.90;;;;;;4879046;29;20228;-83
2023/04/09 00:21:24;;;;;;;33.60;27.53;;;8.70;99.90;;;;;;4880706;29;20843;-84
2023/04/09 00:23:49;;;;;;;38.67;30.40;;;8.60;99.90;;;;;;4880142;29;20259;-84
2023/04/09 00:26:15;;;;;;;42.50;29.80;;;8.40;99.90;;;;;;4880858;29;20235;-84
2023/04/09 00:28:41;;;;;;;41.27;32.43;;;8.20;99.90;;;;;;4880074;29;20766;-84
2023/04/09 00:31:07;;;;;;;39.67;29.40;;;8.10;99.90;;;;;;4881029;29;20705;-84
2023/04/09 00:33:32;;;;;;;40.43;30.93;;;8.00;99.90;;;;;;4880442;29;20183;-84
2023/04/09 00:35:58;;;;;;;40.63;29.67;;;7.90;99.90;;;;;;4878960;29;20218;-84
2023/04/09 00:38:24;;;;;;;42.97;28.50;;;7.80;99.90;;;;;;4880854;29;20293;-84
2023/04/09 00:40:50;;;;;;;39.60;28.33;;;7.70;99.90;;;;;;4879880;29;20179;-84
2023/04/09 00:43:16;;;;;;;35.80;28.00;;;7.80;99.90;;;;;;4878385;29;20577;-83
2023/04/09 00:45:43;;;;;;;38.60;29.10;;;7.90;99.90;;;;;;4879627;29;20421;-83
2023/04/09 00:48:10;;;;;;;34.70;26.43;;;7.90;99.90;;;;;;4879696;29;20468;-84
2023/04/09 00:50:38;;;;;;;44.13;30.43;;;8.00;99.90;;;;;;4878739;29;20444;-82
2023/04/09 00:53:04;;;;;;;41.37;29.83;;;8.10;99.90;;;;;;4877966;29;20436;-84
2023/04/09 00:55:31;;;;;;;39.87;30.10;;;8.10;99.90;;;;;;4880367;29;20429;-83
2023/04/09 00:57:57;;;;;;;42.70;31.90;;;8.10;99.90;;;;;;4879184;29;20503;-83
2023/04/09 01:00:22;;;;;;;37.00;28.07;;;8.20;99.90;;;;;;4879112;29;20435;-84
2023/04/09 01:02:51;;;;;;;38.87;28.57;;;8.20;99.90;;;;;;4878598;29;20211;-84
2023/04/09 01:05:17;;;;;;;38.87;28.07;;;8.30;99.90;;;;;;4878891;29;20184;-84
2023/04/09 01:08:05;;;;;;;37.70;27.80;;;8.40;99.90;;;;;;4879365;29;20497;-83
2023/04/09 01:10:39;;;;;;;35.63;26.80;;;8.50;99.90;;;;;;4879117;29;20438;-83
2023/04/09 01:13:22;;;;;;;38.00;28.47;;;8.50;99.90;;;;;;4878760;29;20490;-83
2023/04/09 01:15:54;;;;;;;36.80;27.03;;;8.60;99.90;;;;;;4877995;29;20913;-83
2023/04/09 01:18:41;;;;;;;41.03;28.97;;;8.50;99.90;;;;;;4879796;29;20500;-84
2023/04/09 01:21:18;;;;;;;39.53;27.33;;;8.60;99.90;;;;;;4879199;29;20393;-83
2023/04/09 01:24:37;;;;;;;38.77;25.43;;;8.60;99.90;;;;;;4879145;29;20385;-83
2023/04/09 01:27:07;;;;;;;33.87;25.83;;;8.60;99.90;;;;;;4839828;29;20442;-83
2023/04/09 01:29:38;;;;;;;40.23;26.90;;;8.60;99.90;;;;;;4876588;29;20440;-83
2023/04/09 01:32:06;;;;;;;36.30;25.63;;;8.60;99.90;;;;;;4878033;29;20401;-83
2023/04/09 01:34:32;;;;;;;37.50;27.83;;;8.60;99.90;;;;;;4879736;29;20416;-84
2023/04/09 01:37:02;;;;;;;38.30;28.17;;;8.50;99.90;;;;;;4876575;29;20508;-83
2023/04/09 01:39:28;;;;;;;42.27;28.30;;;8.60;99.90;;;;;;4878982;29;20511;-84
2023/04/09 01:41:56;;;;;;;39.30;27.40;;;8.50;99.90;;;;;;4889272;29;20444;-83
2023/04/09 01:44:24;;;;;;;44.87;29.37;;;8.60;99.90;;;;;;4875919;29;20435;-83
2023/04/09 01:46:51;;;;;;;45.50;29.53;;;8.60;99.90;;;;;;4876057;29;20448;-83
2023/04/09 01:49:16;;;;;;;41.57;28.50;;;8.60;99.90;;;;;;4879416;29;20400;-84
2023/04/09 01:51:43;;;;;;;43.70;28.23;;;8.60;99.90;;;;;;4877722;29;20424;-82
2023/04/09 01:54:09;;;;;;;41.93;26.00;;;8.60;99.90;;;;;;4877734;29;20254;-83
2023/04/09 01:56:42;;;;;;;37.33;27.10;;;8.60;99.90;;;;;;4877835;29;20435;-84
2023/04/09 01:59:08;;;;;;;42.87;27.20;;;8.50;99.90;;;;;;4862519;29;20413;-84
2023/04/09 02:01:40;;;;;;;37.00;27.20;;;8.50;99.90;;;;;;4877504;29;20424;-84
2023/04/09 02:04:12;;;;;;;37.53;26.97;;;8.60;99.90;;;;;;4877301;29;20184;-84
2023/04/09 02:06:52;;;;;;;42.30;26.93;;;8.60;99.90;;;;;;4878457;29;20484;-84
2023/04/09 02:09:20;;;;;;;48.93;32.77;;;8.60;99.90;;;;;;4879408;29;20381;-84
2023/04/09 02:11:47;;;;;;;60.20;31.43;;;8.60;99.90;;;;;;4878480;29;20765;-83
2023/04/09 02:14:15;;;;;;;41.50;29.63;;;8.60;99.90;;;;;;4879037;29;20404;-83
2023/04/09 02:16:41;;;;;;;48.07;26.73;;;8.60;99.90;;;;;;4877767;29;20512;-83
2023/04/09 02:19:07;;;;;;;42.20;28.00;;;8.60;99.90;;;;;;4877174;29;20447;-84
2023/04/09 02:21:32;;;;;;;44.43;28.60;;;8.50;99.90;;;;;;4877763;29;20396;-83
2023/04/09 02:23:58;;;;;;;40.40;28.90;;;8.40;99.90;;;;;;4877309;29;20469;-83
2023/04/09 02:26:24;;;;;;;44.67;30.80;;;8.30;99.90;;;;;;4877693;29;20183;-84
2023/04/09 02:28:50;;;;;;;41.17;30.57;;;8.20;99.90;;;;;;4875302;29;20194;-84
2023/04/09 02:31:16;;;;;;;47.50;33.10;;;8.00;99.90;;;;;;4878126;29;20215;-84
2023/04/09 02:33:42;;;;;;;57.50;31.87;;;8.00;99.90;;;;;;4878857;29;20400;-84
2023/04/09 02:36:11;;;;;;;52.83;31.67;;;8.10;99.90;;;;;;4877360;29;20499;-84
2023/04/09 02:38:40;;;;;;;48.23;29.27;;;8.10;99.90;;;;;;4878639;29;20458;-84
2023/04/09 02:41:06;;;;;;;67.83;30.93;;;8.10;99.90;;;;;;4877916;29;20419;-84
2023/04/09 02:43:32;;;;;;;44.33;30.10;;;8.10;99.90;;;;;;4877236;29;20411;-84
2023/04/09 02:45:57;;;;;;;72.53;31.37;;;8.10;99.90;;;;;;4876549;29;20282;-84
2023/04/09 02:48:23;;;;;;;63.07;34.20;;;8.20;99.90;;;;;;4860967;29;20184;-84
2023/04/09 02:50:49;;;;;;;55.33;35.03;;;8.20;99.90;;;;;;4877773;29;20180;-83
2023/04/09 02:53:15;;;;;;;69.50;37.13;;;8.00;99.90;;;;;;4878578;29;20226;-84
2023/04/09 02:55:40;;;;;;;57.50;35.20;;;8.00;99.90;;;;;;4878819;29;20525;-84
2023/04/09 02:58:06;;;;;;;69.80;32.20;;;8.00;99.90;;;;;;4879098;29;20555;-84
2023/04/09 03:00:32;;;;;;;78.23;32.17;;;8.00;99.90;;;;;;4880862;29;20224;-84
2023/04/09 03:02:58;;;;;;;57.07;34.07;;;8.00;99.90;;;;;;4878240;29;20177;-84
2023/04/09 03:05:23;;;;;;;59.57;32.30;;;8.00;99.90;;;;;;4877204;29;20258;-84
2023/04/09 03:07:49;;;;;;;52.60;32.73;;;8.00;99.90;;;;;;4876321;29;20183;-83
2023/04/09 03:10:15;;;;;;;49.67;28.30;;;8.00;99.90;;;;;;4878478;29;20314;-84
2023/04/09 03:12:43;;;;;;;49.40;28.13;;;8.00;99.90;;;;;;4880311;29;20443;-84
2023/04/09 03:15:09;;;;;;;66.93;30.43;;;8.00;99.90;;;;;;4879623;29;20192;-84
2023/04/09 03:17:35;;;;;;;47.87;27.87;;;8.00;99.90;;;;;;4881198;29;20487;-84
2023/04/09 03:20:01;;;;;;;56.00;29.60;;;8.00;99.90;;;;;;4881028;29;20781;-83
2023/04/09 03:22:27;;;;;;;42.07;28.50;;;8.00;99.90;;;;;;4881006;29;20938;-83
2023/04/09 03:24:54;;;;;;;54.67;27.30;;;8.00;99.90;;;;;;4879261;29;20439;-83
2023/04/09 03:27:20;;;;;;;40.37;28.20;;;8.00;99.90;;;;;;4864592;29;20195;-83
2023/04/09 03:29:46;;;;;;;40.47;27.43;;;7.90;99.90;;;;;;4881793;29;20412;-81
2023/04/09 03:32:12;;;;;;;46.80;25.93;;;7.90;99.90;;;;;;4881351;29;20180;-84
2023/04/09 03:34:37;;;;;;;44.83;25.90;;;7.80;99.90;;;;;;4881167;29;20239;-84
2023/04/09 03:37:03;;;;;;;31.77;25.07;;;7.80;99.90;;;;;;4881167;29;20613;-83
2023/04/09 03:39:29;;;;;;;31.93;24.17;;;7.80;99.90;;;;;;4879533;29;20186;-83
2023/04/09 03:41:57;;;;;;;46.73;23.77;;;7.70;99.90;;;;;;4880930;29;20206;-83
2023/04/09 03:44:23;;;;;;;34.80;23.00;;;7.70;99.90;;;;;;4881660;29;20506;-83
2023/04/09 03:46:49;;;;;;;38.67;23.83;;;7.60;99.90;;;;;;4879748;29;20443;-81
2023/04/09 03:49:14;;;;;;;39.73;23.40;;;7.60;99.90;;;;;;4881281;29;20404;-83
2023/04/09 03:51:40;;;;;;;31.97;23.67;;;7.50;99.90;;;;;;4881485;29;20171;-83
2023/04/09 03:54:06;;;;;;;37.17;25.03;;;7.50;99.90;;;;;;4879987;29;20179;-84
2023/04/09 03:56:32;;;;;;;36.13;24.13;;;7.50;99.90;;;;;;4880657;29;20560;-84
2023/04/09 03:58:57;;;;;;;32.07;23.20;;;7.50;99.90;;;;;;4880637;29;20182;-84
2023/04/09 04:01:23;;;;;;;48.20;24.40;;;7.50;99.90;;;;;;4881391;29;20303;-84
2023/04/09 04:03:49;;;;;;;38.57;25.60;;;7.50;99.90;;;;;;4880926;29;20205;-82
2023/04/09 04:06:15;;;;;;;65.13;24.23;;;7.50;99.90;;;;;;4881036;29;20182;-84
2023/04/09 04:08:40;;;;;;;37.93;23.47;;;7.50;99.90;;;;;;4880366;29;20639;-84
2023/04/09 04:11:06;;;;;;;45.03;25.53;;;7.40;99.90;;;;;;4879264;29;20314;-84
2023/04/09 04:13:32;;;;;;;37.70;22.27;;;7.30;99.90;;;;;;4880524;29;20269;-83
2023/04/09 04:15:58;;;;;;;49.93;22.37;;;7.20;99.90;;;;;;4879212;29;20322;-83
2023/04/09 04:18:23;;;;;;;30.13;24.00;;;7.10;99.90;;;;;;4880518;29;20482;-83
2023/04/09 04:20:49;;;;;;;61.00;23.33;;;7.00;99.90;;;;;;4879563;29;20184;-81
2023/04/09 04:23:15;;;;;;;48.63;23.90;;;7.00;99.90;;;;;;4880437;29;20216;-83
2023/04/09 04:25:43;;;;;;;34.07;23.33;;;7.10;99.90;;;;;;4879164;29;20257;-83
2023/04/09 04:28:09;;;;;;;46.37;23.03;;;7.00;99.90;;;;;;4878884;29;20188;-83
2023/04/09 04:30:34;;;;;;;51.10;23.60;;;7.00;99.90;;;;;;4880977;29;20413;-83
2023/04/09 04:33:01;;;;;;;57.53;22.57;;;7.00;99.90;;;;;;4879643;29;20478;-83
2023/04/09 04:35:26;;;;;;;35.97;21.90;;;7.00;99.90;;;;;;4880821;29;20209;-83
2023/04/09 04:37:52;;;;;;;26.50;21.27;;;6.90;99.90;;;;;;4878896;29;20523;-81
2023/04/09 04:40:18;;;;;;;38.67;21.67;;;7.00;99.90;;;;;;4879806;29;20504;-83
2023/04/09 04:42:44;;;;;;;39.70;21.23;;;7.00;99.90;;;;;;4879717;29;20188;-83
2023/04/09 04:45:09;;;;;;;38.83;21.30;;;7.00;99.90;;;;;;4878902;29;20633;-83
2023/04/09 04:47:35;;;;;;;34.00;21.20;;;6.90;99.90;;;;;;4879444;29;20201;-83
2023/04/09 04:50:01;;;;;;;32.83;22.23;;;6.80;99.90;;;;;;4878537;29;20450;-83
2023/04/09 04:52:27;;;;;;;28.50;21.13;;;6.80;99.90;;;;;;4864474;29;20265;-84
2023/04/09 04:54:52;;;;;;;30.03;20.17;;;6.80;99.90;;;;;;4884344;29;20245;-82
2023/04/09 04:57:18;;;;;;;29.17;19.10;;;6.80;99.90;;;;;;4879113;29;20200;-84
2023/04/09 04:59:47;;;;;;;28.97;18.60;;;6.90;99.90;;;;;;4879101;29;20271;-83
2023/04/09 05:02:12;;;;;;;31.97;19.87;;;6.70;99.90;;;;;;4879541;29;20178;-83
2023/04/09 05:04:38;;;;;;;23.93;19.10;;;6.70;99.90;;;;;;4880684;29;20422;-84
2023/04/09 05:07:04;;;;;;;35.20;19.73;;;6.80;99.90;;;;;;4879211;29;20173;-83
2023/04/09 05:09:29;;;;;;;27.83;18.60;;;6.80;99.90;;;;;;4880215;29;20182;-83
2023/04/09 05:11:56;;;;;;;27.20;20.20;;;6.80;99.90;;;;;;4878284;29;20279;-81
2023/04/09 05:14:22;;;;;;;29.40;19.00;;;6.90;99.90;;;;;;4879572;29;20228;-84
2023/04/09 05:16:48;;;;;;;33.83;19.40;;;6.70;99.90;;;;;;4878354;29;20474;-83
2023/04/09 05:19:14;;;;;;;41.40;20.20;;;6.40;99.90;;;;;;4879187;29;20405;-84
2023/04/09 05:21:40;;;;;;;28.47;20.00;;;6.40;99.90;;;;;;4878516;29;20184;-83
2023/04/09 05:24:06;;;;;;;26.10;21.23;;;6.40;99.90;;;;;;4878349;29;20429;-84
2023/04/09 05:26:31;;;;;;;30.60;19.10;;;6.30;99.90;;;;;;4879929;29;20172;-83
2023/04/09 05:28:57;;;;;;;25.13;18.90;;;6.40;99.90;;;;;;4878693;29;20423;-82
2023/04/09 05:31:23;;;;;;;35.17;19.13;;;6.40;99.90;;;;;;4869198;29;20261;-83
2023/04/09 05:33:49;;;;;;;23.13;17.83;;;6.50;99.90;;;;;;4870945;29;20505;-83
2023/04/09 05:36:16;;;;;;;24.20;18.37;;;6.50;99.90;;;;;;4877271;29;20176;-84
2023/04/09 05:38:45;;;;;;;35.43;20.23;;;6.50;99.90;;;;;;4878167;29;20461;-84
2023/04/09 05:41:11;;;;;;;25.67;17.87;;;6.60;99.90;;;;;;4878823;29;20423;-84
2023/04/09 05:43:37;;;;;;;35.10;18.63;;;6.60;99.90;;;;;;4887263;29;20960;-83
2023/04/09 05:46:03;;;;;;;28.33;17.30;;;6.70;99.90;;;;;;4896289;29;20183;-83
2023/04/09 05:48:29;;;;;;;31.33;17.37;;;6.70;99.90;;;;;;4892844;29;20173;-84
2023/04/09 05:50:55;;;;;;;23.37;16.50;;;6.70;99.90;;;;;;4879745;29;20418;-82
2023/04/09 05:53:21;;;;;;;20.83;17.60;;;6.70;99.90;;;;;;4879043;29;20764;-84
2023/04/09 05:55:50;;;;;;;19.43;17.40;;;6.80;99.90;;;;;;4878965;29;20633;-83
2023/04/09 05:58:17;;;;;;;21.80;17.13;;;6.80;99.90;;;;;;4878734;29;21100;-84
2023/04/09 06:00:43;;;;;;;19.07;16.90;;;6.80;99.90;;;;;;4879370;29;20410;-84
2023/04/09 06:03:09;;;;;;;19.20;16.90;;;6.90;99.90;;;;;;4877937;29;20465;-83
2023/04/09 06:05:35;;;;;;;17.33;15.53;;;6.90;99.90;;;;;;4879150;29;20491;-84
2023/04/09 06:08:01;;;;;;;18.93;14.80;;;7.00;99.90;;;;;;4867225;29;20193;-84
2023/04/09 06:10:27;;;;;;;18.30;16.10;;;7.00;99.90;;;;;;4860548;29;20846;-86
2023/04/09 06:12:52;;;;;;;18.10;16.00;;;7.00;99.90;;;;;;4874807;29;20432;-86
2023/04/09 06:15:19;;;;;;;20.30;16.43;;;7.10;99.90;;;;;;4859657;29;20431;-85
2023/04/09 06:17:45;;;;;;;21.17;16.43;;;7.00;99.90;;;;;;4860317;29;20499;-84
2023/04/09 06:20:11;;;;;;;17.50;15.57;;;7.00;99.90;;;;;;4859576;29;20899;-84
2023/04/09 06:22:37;;;;;;;16.53;14.67;;;7.00;99.90;;;;;;4860377;29;20415;-89
2023/04/09 06:25:03;;;;;;;19.20;16.43;;;7.20;99.90;;;;;;4871863;29;20919;-82
2023/04/09 06:27:28;;;;;;;17.63;15.73;;;7.30;99.90;;;;;;4878107;29;20213;-83
2023/04/09 06:29:54;;;;;;;21.50;16.13;;;7.90;99.90;;;;;;4878787;29;20475;-83
2023/04/09 06:32:20;;;;;;;19.73;17.70;;;8.70;99.90;;;;;;4877780;29;20172;-83
2023/04/09 06:34:47;;;;;;;17.50;15.80;;;9.40;99.90;;;;;;4878307;29;20624;-84
2023/04/09 06:37:12;;;;;;;16.57;14.80;;;10.10;99.90;;;;;;4876783;29;20660;-83
2023/04/09 06:39:41;;;;;;;17.57;15.33;;;10.70;99.90;;;;;;4874449;29;20427;-83
2023/04/09 06:42:06;;;;;;;17.10;15.40;;;11.10;99.90;;;;;;4874345;29;20204;-83
2023/04/09 06:44:33;;;;;;;21.90;16.57;;;11.50;99.90;;;;;;4875521;29;20908;-83
2023/04/09 06:46:59;;;;;;;16.20;14.60;;;11.80;99.90;;;;;;4872318;29;20219;-82
2023/04/09 06:49:25;;;;;;;18.10;16.30;;;12.10;99.90;;;;;;4874133;29;20859;-83
2023/04/09 06:51:52;;;;;;;16.87;15.13;;;12.40;99.90;;;;;;4873834;29;20967;-82
2023/04/09 06:54:19;;;;;;;17.47;15.80;;;12.60;99.90;;;;;;4873939;29;20776;-85
2023/04/09 06:56:45;;;;;;;16.40;14.90;;;12.70;99.80;;;;;;4877767;29;20507;-86
2023/04/09 06:59:11;;;;;;;21.20;18.97;;;12.90;99.90;;;;;;4875743;29;20542;-85
2023/04/09 07:01:37;;;;;;;18.47;16.67;;;13.10;99.00;;;;;;4859872;29;20536;-86
2023/04/09 07:04:03;;;;;;;18.13;16.33;;;13.30;99.70;;;;;;4859219;29;20170;-84
2023/04/09 07:06:29;;;;;;;17.83;15.93;;;13.50;99.80;;;;;;4860116;29;20406;-85
2023/04/09 07:08:55;;;;;;;21.43;18.43;;;13.70;98.60;;;;;;4871875;29;20437;-85
2023/04/09 07:11:21;;;;;;;17.40;15.60;;;14.00;99.90;;;;;;4876643;29;20790;-84
2023/04/09 07:13:47;;;;;;;18.10;16.30;;;14.20;99.90;;;;;;4878269;29;20423;-85
2023/04/09 07:16:12;;;;;;;17.10;15.40;;;14.30;97.80;;;;;;4877097;29;20262;-86
2023/04/09 07:18:38;;;;;;;18.87;17.13;;;14.50;97.50;;;;;;4876425;29;20482;-86
2023/04/09 07:21:04;;;;;;;19.30;16.97;;;14.60;97.20;;;;;;4876963;29;20180;-84
2023/04/09 07:23:33;;;;;;;18.73;16.93;;;14.70;98.00;;;;;;4878201;29;20223;-87
2023/04/09 07:26:02;;;;;;;20.73;17.87;;;14.80;99.90;;;;;;4878169;29;20179;-87
2023/04/09 07:28:28;;;;;;;22.67;17.10;;;15.00;99.90;;;;;;4878184;29;20768;-89
2023/04/09 07:30:53;;;;;;;21.90;17.97;;;15.30;99.90;;;;;;4878195;29;20413;-92
2023/04/09 07:33:19;;;;;;;18.10;16.40;;;15.40;99.90;;;;;;4888621;29;20190;-86
2023/04/09 07:35:45;;;;;;;18.27;16.50;;;15.50;99.90;;;;;;4869202;29;20182;-86
2023/04/09 07:38:11;;;;;;;63.47;47.53;;;15.60;96.70;;;;;;4860846;29;20255;-86
2023/04/09 07:40:37;;;;;;;341.40;226.23;;;15.80;95.50;;;;;;4880009;29;20446;-86
2023/04/09 07:43:04;;;;;;;84.30;67.13;;;15.90;98.50;;;;;;4869527;29;20399;-83
2023/04/09 07:45:32;;;;;;;19.43;17.53;;;16.00;98.00;;;;;;4861814;29;20778;-88
2023/04/09 07:47:58;;;;;;;20.87;18.57;;;16.20;96.70;;;;;;4859879;29;20428;-94
2023/04/09 07:50:23;;;;;;;19.93;18.13;;;16.30;95.00;;;;;;4887847;29;20491;-91
2023/04/09 07:52:49;;;;;;;507.80;315.47;;;16.40;96.00;;;;;;4878311;29;20512;-94
2023/04/09 07:55:15;;;;;;;69.97;49.63;;;16.60;95.70;;;;;;4892073;29;20190;-91
2023/04/09 07:57:42;;;;;;;22.47;20.27;;;16.70;96.30;;;;;;4877335;29;20258;-93
2023/04/09 08:00:08;;;;;;;18.70;16.83;;;16.80;93.20;;;;;;4879177;29;20520;-91
2023/04/09 08:02:34;;;;;;;18.70;17.00;;;16.90;96.30;;;;;;4879947;29;20423;-83
2023/04/09 08:05:01;;;;;;;19.13;17.33;;;17.00;94.20;;;;;;4879821;29;20536;-86
2023/04/09 08:07:26;;;;;;;21.10;19.10;;;17.00;92.40;;;;;;4878980;29;20515;-88
2023/04/09 08:09:52;;;;;;;24.90;22.27;;;17.00;90.30;;;;;;4877649;29;20983;-86
2023/04/09 08:12:18;;;;;;;22.17;19.87;;;16.70;87.10;;;;;;4877238;29;20188;-86
2023/04/09 08:14:44;;;;;;;19.63;17.63;;;16.30;88.60;;;;;;4882576;29;20167;-86
2023/04/09 08:17:09;;;;;;;19.33;17.33;;;15.90;90.40;;;;;;4878982;29;20236;-85
2023/04/09 08:19:35;;;;;;;21.10;17.03;;;15.50;90.70;;;;;;4895201;29;20179;-85
2023/04/09 08:22:01;;;;;;;18.70;16.70;;;15.10;92.10;;;;;;4879356;29;20189;-83
2023/04/09 08:24:27;;;;;;;18.00;16.10;;;14.70;94.20;;;;;;4864585;29;20248;-86
2023/04/09 08:26:53;;;;;;;20.10;16.40;;;14.50;95.10;;;;;;4866466;29;20190;-85
2023/04/09 08:29:19;;;;;;;21.53;17.07;;;14.20;97.80;;;;;;4880084;29;20203;-85
2023/04/09 08:31:44;;;;;;;19.17;16.97;;;14.00;98.80;;;;;;4881336;29;20439;-85
2023/04/09 08:34:11;;;;;;;18.70;16.37;;;13.80;98.50;;;;;;4880137;29;20171;-85
2023/04/09 08:36:37;;;;;;;36.17;27.07;;;13.80;99.90;;;;;;4882235;29;20181;-86
2023/04/09 08:39:03;;;;;;;217.90;140.33;;;13.70;99.90;;;;;;4881626;29;20495;-83
2023/04/09 08:41:30;;;;;;;31.33;25.03;;;13.70;99.90;;;;;;4880413;29;20187;-85
2023/04/09 08:43:56;;;;;;;19.73;17.63;;;13.70;99.90;;;;;;4880108;29;20250;-86
2023/04/09 08:46:23;;;;;;;21.17;18.10;;;13.60;99.90;;;;;;4878364;29;21149;-86
2023/04/09 08:48:51;;;;;;;19.20;17.13;;;13.60;99.90;;;;;;4880893;29;20418;-86
2023/04/09 08:51:19;;;;;;;18.00;14.57;;;13.70;99.90;;;;;;4879746;29;20442;-85
2023/04/09 08:53:55;;;;;;;17.40;15.23;;;13.70;99.90;;;;;;4880462;29;20414;-86
2023/04/09 08:56:21;;;;;;;17.30;14.30;;;13.80;99.90;;;;;;4879470;29;20411;-85
2023/04/09 08:58:47;;;;;;;18.47;14.60;;;13.80;99.90;;;;;;4880188;29;20856;-85
2023/04/09 09:01:21;;;;;;;17.73;13.97;;;13.80;99.90;;;;;;4879521;29;20407;-85
2023/04/09 09:03:56;;;;;;;16.27;14.03;;;13.90;99.90;;;;;;4880456;29;20416;-85
2023/04/09 09:06:24;;;;;;;15.80;14.13;;;14.00;99.90;;;;;;4879520;29;20767;-86
2023/04/09 09:09:00;;;;;;;17.30;14.50;;;14.10;99.90;;;;;;4879064;29;20459;-85
2023/04/09 09:11:27;;;;;;;16.60;14.53;;;14.30;99.90;;;;;;4879400;29;20393;-85
2023/04/09 09:14:06;;;;;;;15.73;13.40;;;14.30;98.10;;;;;;4880079;29;20501;-85
2023/04/09 09:16:34;;;;;;;15.83;14.00;;;14.50;99.70;;;;;;4876992;29;20440;-85
2023/04/09 09:19:03;;;;;;;35.60;29.77;;;14.60;97.60;;;;;;4878369;29;20489;-85
2023/04/09 09:21:28;;;;;;;23.03;18.07;;;14.70;95.40;;;;;;4878537;29;20750;-84
2023/04/09 09:23:55;;;;;;;105.13;70.87;;;14.60;94.50;;;;;;4880295;29;20421;-86
2023/04/09 09:26:28;;;;;;;63.83;43.90;;;14.60;93.10;;;;;;4878785;29;20424;-86
2023/04/09 09:28:57;;;;;;;19.77;15.20;;;14.70;93.00;;;;;;4879244;29;20444;-86
2023/04/09 09:31:24;;;;;;;11.33;10.13;;;14.70;90.80;;;;;;4878849;29;20422;-86
2023/04/09 09:33:51;;;;;;;12.00;10.53;;;14.60;88.70;;;;;;4879140;29;20784;-86
2023/04/09 09:36:33;;;;;;;12.20;10.50;;;14.50;89.80;;;;;;4861631;29;20415;-87
2023/04/09 09:39:08;;;;;;;12.53;11.03;;;14.50;86.90;;;;;;4881065;29;20471;-86
2023/04/09 09:41:35;;;;;;;12.07;10.77;;;14.30;87.60;;;;;;4879227;29;20915;-86
2023/04/09 09:44:03;;;;;;;11.50;9.93;;;14.30;87.50;;;;;;4879565;29;20471;-87
2023/04/09 09:46:33;;;;;;;12.53;11.27;;;14.30;87.30;;;;;;4879647;29;21009;-87
2023/04/09 09:48:59;;;;;;;11.00;9.90;;;14.30;86.70;;;;;;4880021;29;20427;-87
2023/04/09 09:51:28;;;;;;;12.03;10.70;;;14.10;85.30;;;;;;4880366;29;20447;-87
2023/04/09 09:53:58;;;;;;;11.40;10.30;;;14.10;87.20;;;;;;4878993;29;20183;-87
2023/04/09 09:56:31;;;;;;;11.20;10.10;;;14.10;84.70;;;;;;4879210;29;20416;-86
2023/04/09 09:59:09;;;;;;;10.83;9.73;;;14.10;85.80;;;;;;4887850;29;20460;-87
2023/04/09 10:01:36;;;;;;;10.70;9.70;;;14.10;86.80;;;;;;4877553;29;20427;-89
2023/04/09 10:04:04;;;;;;;11.10;9.90;;;14.40;88.30;;;;;;4900356;29;20461;-90
2023/04/09 10:06:33;;;;;;;11.27;10.13;;;14.70;86.20;;;;;;4876858;29;20439;-90
2023/04/09 10:09:03;;;;;;;11.57;10.40;;;15.10;86.00;;;;;;4880778;29;20415;-89
2023/04/09 10:11:31;;;;;;;48.97;36.27;;;15.40;87.40;;;;;;4880480;29;20427;-89
2023/04/09 10:13:58;;;;;;;116.63;84.63;;;15.70;81.80;;;;;;4863262;29;20513;-88
2023/04/09 10:16:27;;;;;;;11.27;10.27;;;16.00;86.20;;;;;;4878969;29;20434;-89
2023/04/09 10:18:55;;;;;;;11.50;10.50;;;16.10;78.20;;;;;;4877788;29;20476;-90
2023/04/09 10:21:29;;;;;;;11.20;10.07;;;16.10;78.10;;;;;;4877335;29;20440;-89
2023/04/09 10:23:55;;;;;;;11.13;10.03;;;16.20;77.00;;;;;;4877572;29;20434;-88
2023/04/09 10:26:29;;;;;;;10.90;9.90;;;16.40;79.90;;;;;;4877335;29;20428;-90
2023/04/09 10:29:07;;;;;;;11.33;10.20;;;16.40;77.80;;;;;;4877252;29;20432;-90
2023/04/09 10:31:53;;;;;;;11.50;10.40;;;16.40;76.20;;;;;;4876937;29;21512;-88
2023/04/09 10:34:26;;;;;;;10.93;10.03;;;16.60;77.40;;;;;;4876557;29;20436;-88
2023/04/09 10:36:56;;;;;;;9.20;8.40;;;16.70;72.40;;;;;;4876738;29;20435;-88
2023/04/09 10:39:26;;;;;;;10.10;9.30;;;16.50;69.20;;;;;;4870141;29;20439;-89
2023/04/09 10:41:54;;;;;;;10.30;9.40;;;16.40;67.80;;;;;;4876156;29;20440;-89
2023/04/09 10:44:21;;;;;;;11.40;10.30;;;16.30;70.60;;;;;;4862034;29;20441;-88
2023/04/09 10:46:48;;;;;;;11.47;10.47;;;16.10;70.40;;;;;;4875288;29;20443;-86
2023/04/09 10:49:18;;;;;;;12.13;10.97;;;15.80;71.20;;;;;;4877043;29;20513;-88
2023/04/09 10:52:05;;;;;;;11.80;10.60;;;15.60;73.30;;;;;;4876541;29;20765;-87
2023/04/09 10:54:34;;;;;;;11.73;10.50;;;15.70;76.10;;;;;;4867878;29;20435;-88
2023/04/09 10:57:16;;;;;;;11.23;10.23;;;15.90;76.50;;;;;;4875311;29;20820;-86
2023/04/09 10:59:53;;;;;;;11.60;10.50;;;16.20;76.40;;;;;;4876195;29;20441;-86
2023/04/09 11:02:43;;;;;;;11.00;9.63;;;16.40;73.20;;;;;;4876452;29;20416;-85
2023/04/09 11:05:15;;;;;;;11.57;10.57;;;16.40;71.10;;;;;;4877686;29;20428;-86
2023/04/09 11:07:45;;;;;;;12.03;10.87;;;16.40;71.10;;;;;;4877407;29;20432;-87
2023/04/09 11:10:11;;;;;;;12.90;11.60;;;16.50;72.40;;;;;;4878187;29;20439;-86
2023/04/09 11:12:37;;;;;;;10.67;9.67;;;16.60;73.50;;;;;;4876868;29;20432;-86
2023/04/09 11:15:03;;;;;;;10.47;9.57;;;16.60;70.70;;;;;;4876738;29;20187;-86
2023/04/09 11:17:34;;;;;;;9.80;8.90;;;16.40;67.20;;;;;;4877507;29;20238;-88
2023/04/09 11:20:02;;;;;;;11.27;10.23;;;16.10;68.60;;;;;;4877513;29;20431;-83
2023/04/09 11:22:28;;;;;;;196.57;129.37;;;16.10;71.30;;;;;;4878060;29;20439;-83
2023/04/09 11:24:54;;;;;;;57.97;43.10;;;16.20;72.30;;;;;;4878933;29;20436;-83
2023/04/09 11:27:20;;;;;;;34.78;30.95;;;16.10;70.30;;;;;;4878213;29;20433;-83
2023/04/09 11:29:46;;;;;;;10.27;9.23;;;16.40;78.60;;;;;;4877366;29;20188;-82
2023/04/09 11:32:12;;;;;;;9.90;9.03;;;16.40;68.40;;;;;;4877304;29;20511;-84
2023/04/09 11:34:38;;;;;;;11.23;10.23;;;16.40;77.40;;;;;;4881128;29;20487;-85
2023/04/09 11:37:12;;;;;;;10.87;9.77;;;16.50;73.30;;;;;;4880955;29;20511;-86
2023/04/09 11:39:39;;;;;;;9.77;8.97;;;16.50;68.70;;;;;;4880004;29;20711;-85
2023/04/09 11:42:05;;;;;;;11.63;10.53;;;16.40;72.80;;;;;;4881646;29;20413;-86
2023/04/09 11:44:33;;;;;;;10.07;9.27;;;16.40;71.80;;;;;;4880812;29;20437;-87
2023/04/09 11:46:59;;;;;;;10.93;10.03;;;16.30;74.50;;;;;;4880696;29;20180;-95
2023/04/09 11:49:25;;;;;;;10.50;9.60;;;16.50;69.90;;;;;;4862969;29;21003;-95
2023/04/09 11:51:52;;;;;;;10.80;9.70;;;16.60;71.70;;;;;;4881558;29;20400;-94
2023/04/09 11:54:17;;;;;;;11.80;10.60;;;16.70;71.50;;;;;;4881847;29;20428;-96
2023/04/09 11:56:43;;;;;;;10.63;9.63;;;16.80;94.90;;;;;;4864843;29;20499;-94
2023/04/09 11:59:09;;;;;;;32.43;24.93;;;16.90;79.10;;;;;;4882705;29;20207;-94
2023/04/09 12:01:35;;;;;;;38.07;28.53;;;17.20;90.70;;;;;;4879028;29;20768;-94
2023/04/09 12:04:01;;;;;;;11.20;10.10;;;17.10;73.60;;;;;;4880900;29;20187;-94
2023/04/09 12:06:27;;;;;;;10.10;9.20;;;17.00;74.20;;;;;;4875067;29;22126;-93
2023/04/09 12:08:57;;;;;;;10.07;9.07;;;16.60;68.00;;;;;;4878654;29;20508;-92
2023/04/09 12:11:30;;;;;;;9.37;8.47;;;16.30;70.10;;;;;;4879204;29;20408;-92
2023/04/09 12:14:03;;;;;;;9.60;8.70;;;16.50;69.70;;;;;;4880123;29;20527;-91
2023/04/09 12:16:42;;;;;;;10.30;9.23;;;16.50;69.60;;;;;;4878805;29;20447;-92
2023/04/09 12:19:10;;;;;;;12.60;11.37;;;16.60;71.00;;;;;;4881424;29;20422;-89
2023/04/09 12:21:46;;;;;;;77.77;50.87;;;16.70;72.60;;;;;;4862286;29;20421;-91
2023/04/09 12:24:12;;;;;;;24.87;21.17;;;16.80;71.60;;;;;;4882708;29;20517;-90
2023/04/09 12:26:38;;;;;;;13.03;11.73;;;16.80;70.20;;;;;;4902168;29;20464;-91
2023/04/09 12:29:03;;;;;;;10.93;9.93;;;16.90;72.10;;;;;;4901232;29;20432;-87
2023/04/09 12:31:29;;;;;;;10.07;9.17;;;17.10;69.20;;;;;;4895580;29;20531;-89
2023/04/09 12:33:55;;;;;;;10.40;9.50;;;17.20;68.10;;;;;;4894843;29;20188;-90
2023/04/09 12:36:22;;;;;;;11.75;9.40;;;17.20;67.00;;;;;;4879149;29;20429;-90